sensor_id;sensor_type;location;lat;lon;timestamp;pressure;altitude;pressure_sealevel;temperature;humidity
3254;BME280;1639;42.804;23.342;2023-02-17T00:01:42;75241.75;;;-148.52;76.38
3254;BME280;1639;42.804;23.342;2023-02-17T00:04:07;75247.94;;;-148.52;76.76
3254;BME280;1639;42.804;23.342;2023-02-17T00:06:33;75256.22;;;-148.52;74.67
3254;BME280;1639;42.804;23.342;2023-02-17T00:08:58;75287.28;;;-148.52;74.57
3254;BME280;1639;42.804;23.342;2023-02-17T00:11:25;75289.34;;;-148.52;73.92
3254;BME280;1639;42.804;23.342;2023-02-17T00:13:52;75310.03;;;-148.52;73.20
3254;BME280;1639;42.804;23.342;2023-02-17T00:16:20;75320.38;;;-148.52;73.47
3254;BME280;1639;42.804;23.342;2023-02-17T00:18:46;75351.41;;;-148.52;73.72
3254;BME280;1639;42.804;23.342;2023-02-17T00:21:17;75367.97;;;-148.52;75.47
3254;BME280;1639;42.804;23.342;2023-02-17T00:23:44;75370.03;;;-148.52;75.88
3254;BME280;1639;42.804;23.342;2023-02-17T00:26:10;75361.78;;;-148.52;76.85
3254;BME280;1639;42.804;23.342;2023-02-17T00:28:36;75361.78;;;-148.52;76.83
3254;BME280;1639;42.804;23.342;2023-02-17T00:31:12;75370.03;;;-148.52;75.31
3254;BME280;1639;42.804;23.342;2023-02-17T00:33:38;75390.75;;;-148.52;75.55
3254;BME280;1639;42.804;23.342;2023-02-17T00:36:10;75394.88;;;-148.52;78.25
3254;BME280;1639;42.804;23.342;2023-02-17T00:38:36;75384.53;;;-148.52;77.67
3254;BME280;1639;42.804;23.342;2023-02-17T00:41:01;75376.25;;;-148.52;77.23
3254;BME280;1639;42.804;23.342;2023-02-17T00:43:26;75405.22;;;-148.52;76.20
3254;BME280;1639;42.804;23.342;2023-02-17T00:45:52;75382.47;;;-148.52;76.14
3254;BME280;1639;42.804;23.342;2023-02-17T00:48:17;75382.47;;;-148.52;74.91
3254;BME280;1639;42.804;23.342;2023-02-17T00:50:43;75403.16;;;-148.52;76.26
3254;BME280;1639;42.804;23.342;2023-02-17T00:53:08;75413.50;;;-148.52;76.46
3254;BME280;1639;42.804;23.342;2023-02-17T00:55:33;75417.66;;;-148.52;76.87
3254;BME280;1639;42.804;23.342;2023-02-17T00:57:59;75411.44;;;-148.52;76.59
3254;BME280;1639;42.804;23.342;2023-02-17T01:00:24;75413.50;;;-148.52;75.83
3254;BME280;1639;42.804;23.342;2023-02-17T01:02:50;75417.66;;;-148.52;77.05
3254;BME280;1639;42.804;23.342;2023-02-17T01:05:15;75419.72;;;-148.52;75.40
3254;BME280;1639;42.804;23.342;2023-02-17T01:07:41;75425.91;;;-148.52;75.52
3254;BME280;1639;42.804;23.342;2023-02-17T01:10:07;75442.47;;;-148.52;77.54
3254;BME280;1639;42.804;23.342;2023-02-17T01:12:33;75442.47;;;-148.52;78.51
3254;BME280;1639;42.804;23.342;2023-02-17T01:14:59;75434.19;;;-148.52;80.52
3254;BME280;1639;42.804;23.342;2023-02-17T01:17:24;75430.06;;;-148.52;81.35
3254;BME280;1639;42.804;23.342;2023-02-17T01:19:50;75407.28;;;-148.52;80.34
3254;BME280;1639;42.804;23.342;2023-02-17T01:22:15;75409.38;;;-148.52;78.52
3254;BME280;1639;42.804;23.342;2023-02-17T01:24:40;75409.38;;;-148.52;77.51
3254;BME280;1639;42.804;23.342;2023-02-17T01:27:06;75405.22;;;-148.52;78.56
3254;BME280;1639;42.804;23.342;2023-02-17T01:29:31;75394.88;;;-148.52;79.31
3254;BME280;1639;42.804;23.342;2023-02-17T01:31:56;75396.94;;;-148.52;78.75
3254;BME280;1639;42.804;23.342;2023-02-17T01:34:22;75394.88;;;-148.52;77.86
3254;BME280;1639;42.804;23.342;2023-02-17T01:36:47;75399.03;;;-148.52;76.84
3254;BME280;1639;42.804;23.342;2023-02-17T01:39:14;75415.56;;;-148.52;76.90
3254;BME280;1639;42.804;23.342;2023-02-17T01:41:40;75421.78;;;-148.52;78.19
3254;BME280;1639;42.804;23.342;2023-02-17T01:44:15;75438.34;;;-148.52;79.96
3254;BME280;1639;42.804;23.342;2023-02-17T01:46:46;75440.41;;;-148.52;81.00
3254;BME280;1639;42.804;23.342;2023-02-17T01:49:37;75417.66;;;-148.52;79.30
3254;BME280;1639;42.804;23.342;2023-02-17T01:52:09;75409.38;;;-148.52;79.31
3254;BME280;1639;42.804;23.342;2023-02-17T01:54:45;75421.78;;;-148.52;78.29
3254;BME280;1639;42.804;23.342;2023-02-17T01:57:14;75428.00;;;-148.52;78.07
3254;BME280;1639;42.804;23.342;2023-02-17T01:59:43;75421.78;;;-148.52;78.81
3254;BME280;1639;42.804;23.342;2023-02-17T02:02:10;75434.19;;;-148.52;79.07
3254;BME280;1639;42.804;23.342;2023-02-17T02:04:38;75440.41;;;-148.52;80.36
3254;BME280;1639;42.804;23.342;2023-02-17T02:07:30;75442.47;;;-148.52;81.58
3254;BME280;1639;42.804;23.342;2023-02-17T02:09:56;75423.84;;;-148.52;82.00
3254;BME280;1639;42.804;23.342;2023-02-17T02:12:29;75425.91;;;-148.52;80.25
3254;BME280;1639;42.804;23.342;2023-02-17T02:14:58;75432.13;;;-148.52;78.66
3254;BME280;1639;42.804;23.342;2023-02-17T02:20:22;75436.28;;;-148.52;77.71
3254;BME280;1639;42.804;23.342;2023-02-17T02:33:50;75475.59;;;-148.52;77.38
3254;BME280;1639;42.804;23.342;2023-02-17T02:36:28;75475.59;;;-148.52;78.12
3254;BME280;1639;42.804;23.342;2023-02-17T02:39:09;75496.28;;;-148.52;80.51
3254;BME280;1639;42.804;23.342;2023-02-17T02:41:40;75512.84;;;-148.52;79.00
3254;BME280;1639;42.804;23.342;2023-02-17T02:44:09;75535.59;;;-148.52;80.65
3254;BME280;1639;42.804;23.342;2023-02-17T02:46:35;75545.94;;;-148.52;81.33
3254;BME280;1639;42.804;23.342;2023-02-17T02:49:00;75558.38;;;-148.52;82.17
3254;BME280;1639;42.804;23.342;2023-02-17T02:59:44;75537.69;;;-148.52;100.00
3254;BME280;1639;42.804;23.342;2023-02-17T03:02:43;75541.81;;;-148.52;94.47
3254;BME280;1639;42.804;23.342;2023-02-17T03:05:15;75533.53;;;-148.52;92.47
3254;BME280;1639;42.804;23.342;2023-02-17T03:10:15;75543.88;;;-148.52;88.41
3254;BME280;1639;42.804;23.342;2023-02-17T03:12:42;75537.69;;;-148.52;88.40
3254;BME280;1639;42.804;23.342;2023-02-17T03:15:30;75537.69;;;-148.52;92.12
3254;BME280;1639;42.804;23.342;2023-02-17T03:17:57;75562.50;;;-148.52;88.86
3254;BME280;1639;42.804;23.342;2023-02-17T03:20:23;75562.50;;;-148.52;89.89
3254;BME280;1639;42.804;23.342;2023-02-17T03:22:49;75545.94;;;-148.52;97.61
3254;BME280;1639;42.804;23.342;2023-02-17T03:25:15;75531.47;;;-148.52;100.00
3254;BME280;1639;42.804;23.342;2023-02-17T03:27:41;75512.84;;;-148.52;100.00
3254;BME280;1639;42.804;23.342;2023-02-17T03:30:07;75494.22;;;-148.52;96.57
3254;BME280;1639;42.804;23.342;2023-02-17T03:32:33;75488.00;;;-148.52;93.81
3254;BME280;1639;42.804;23.342;2023-02-17T03:34:59;75475.59;;;-148.52;91.16
3254;BME280;1639;42.804;23.342;2023-02-17T03:37:24;75496.28;;;-148.52;88.59
3254;BME280;1639;42.804;23.342;2023-02-17T03:39:49;75498.34;;;-148.52;88.01
3254;BME280;1639;42.804;23.342;2023-02-17T03:42:15;75525.25;;;-148.52;91.79
3254;BME280;1639;42.804;23.342;2023-02-17T03:44:40;75539.75;;;-148.52;100.00
3254;BME280;1639;42.804;23.342;2023-02-17T03:47:06;75537.69;;;-148.52;100.00
3254;BME280;1639;42.804;23.342;2023-02-17T03:49:31;75508.69;;;-148.52;100.00
3254;BME280;1639;42.804;23.342;2023-02-17T03:51:57;75496.28;;;-148.52;100.00
3254;BME280;1639;42.804;23.342;2023-02-17T03:54:24;75496.28;;;-148.52;100.00
3254;BME280;1639;42.804;23.342;2023-02-17T03:56:49;75514.91;;;-148.52;100.00
3254;BME280;1639;42.804;23.342;2023-02-17T03:59:14;75541.81;;;-148.52;100.00
3254;BME280;1639;42.804;23.342;2023-02-17T04:01:40;75512.84;;;-148.52;100.00
3254;BME280;1639;42.804;23.342;2023-02-17T04:04:05;75488.00;;;-148.52;100.00
3254;BME280;1639;42.804;23.342;2023-02-17T04:06:30;75483.88;;;-148.52;100.00
3254;BME280;1639;42.804;23.342;2023-02-17T04:08:56;75479.72;;;-148.52;96.80
3254;BME280;1639;42.804;23.342;2023-02-17T04:11:21;75483.88;;;-148.52;93.87
3254;BME280;1639;42.804;23.342;2023-02-17T04:13:47;75473.53;;;-148.52;95.43
3254;BME280;1639;42.804;23.342;2023-02-17T04:16:12;75471.44;;;-148.52;100.00
3254;BME280;1639;42.804;23.342;2023-02-17T04:18:38;75456.97;;;-148.52;100.00
3254;BME280;1639;42.804;23.342;2023-02-17T04:21:04;75481.78;;;-148.52;100.00
3254;BME280;1639;42.804;23.342;2023-02-17T04:23:30;75496.28;;;-148.52;100.00
3254;BME280;1639;42.804;23.342;2023-02-17T04:25:55;75514.91;;;-148.52;100.00
3254;BME280;1639;42.804;23.342;2023-02-17T04:28:21;75541.81;;;-148.52;100.00
3254;BME280;1639;42.804;23.342;2023-02-17T04:30:48;75535.59;;;-148.52;100.00
3254;BME280;1639;42.804;23.342;2023-02-17T04:33:14;75531.47;;;-148.52;100.00
3254;BME280;1639;42.804;23.342;2023-02-17T04:35:40;75519.06;;;-148.52;100.00
3254;BME280;1639;42.804;23.342;2023-02-17T04:38:06;75504.56;;;-148.52;100.00
3254;BME280;1639;42.804;23.342;2023-02-17T04:40:32;75494.22;;;-148.52;100.00
3254;BME280;1639;42.804;23.342;2023-02-17T04:42:58;75508.69;;;-148.52;100.00
3254;BME280;1639;42.804;23.342;2023-02-17T04:45:23;75521.13;;;-148.52;100.00
3254;BME280;1639;42.804;23.342;2023-02-17T04:47:49;75550.09;;;-148.52;100.00
3254;BME280;1639;42.804;23.342;2023-02-17T04:50:14;75560.44;;;-148.52;100.00
3254;BME280;1639;42.804;23.342;2023-02-17T04:52:40;75525.25;;;-148.52;100.00
3254;BME280;1639;42.804;23.342;2023-02-17T04:55:06;75512.84;;;-148.52;100.00
3254;BME280;1639;42.804;23.342;2023-02-17T04:57:32;75496.28;;;-148.52;100.00
3254;BME280;1639;42.804;23.342;2023-02-17T04:59:57;75500.41;;;-148.52;100.00
3254;BME280;1639;42.804;23.342;2023-02-17T05:02:22;75516.97;;;-148.52;100.00
3254;BME280;1639;42.804;23.342;2023-02-17T05:04:51;75521.13;;;-148.52;100.00
3254;BME280;1639;42.804;23.342;2023-02-17T05:07:16;75500.41;;;-148.52;100.00
3254;BME280;1639;42.804;23.342;2023-02-17T05:09:42;75494.22;;;-148.52;100.00
3254;BME280;1639;42.804;23.342;2023-02-17T05:12:07;75502.50;;;-148.52;100.00
3254;BME280;1639;42.804;23.342;2023-02-17T05:14:32;75500.41;;;-148.52;98.79
3254;BME280;1639;42.804;23.342;2023-02-17T05:16:58;75492.16;;;-148.52;97.44
3254;BME280;1639;42.804;23.342;2023-02-17T05:19:23;75502.50;;;-148.52;96.46
3254;BME280;1639;42.804;23.342;2023-02-17T05:21:48;75514.91;;;-148.52;98.76
3254;BME280;1639;42.804;23.342;2023-02-17T05:24:15;75525.25;;;-148.52;100.00
3254;BME280;1639;42.804;23.342;2023-02-17T05:26:41;75523.19;;;-148.52;100.00
3254;BME280;1639;42.804;23.342;2023-02-17T05:29:06;75514.91;;;-148.52;100.00
3254;BME280;1639;42.804;23.342;2023-02-17T05:31:32;75516.97;;;-148.52;100.00
3254;BME280;1639;42.804;23.342;2023-02-17T05:33:57;75516.97;;;-148.52;100.00
3254;BME280;1639;42.804;23.342;2023-02-17T05:36:22;75529.41;;;-148.52;100.00
3254;BME280;1639;42.804;23.342;2023-02-17T05:38:48;75521.13;;;-148.52;100.00
3254;BME280;1639;42.804;23.342;2023-02-17T05:41:15;75516.97;;;-148.52;100.00
3254;BME280;1639;42.804;23.342;2023-02-17T05:43:41;75519.06;;;-148.52;100.00
3254;BME280;1639;42.804;23.342;2023-02-17T05:46:07;75508.69;;;-148.52;100.00
3254;BME280;1639;42.804;23.342;2023-02-17T05:48:32;75508.69;;;-148.52;100.00
3254;BME280;1639;42.804;23.342;2023-02-17T05:50:58;75492.16;;;-148.52;100.00
3254;BME280;1639;42.804;23.342;2023-02-17T05:53:23;75471.44;;;-148.52;100.00
3254;BME280;1639;42.804;23.342;2023-02-17T05:55:49;75477.66;;;-148.52;100.00
3254;BME280;1639;42.804;23.342;2023-02-17T05:58:14;75467.31;;;-148.52;100.00
3254;BME280;1639;42.804;23.342;2023-02-17T06:00:40;75459.03;;;-148.52;100.00
3254;BME280;1639;42.804;23.342;2023-02-17T06:03:05;75454.91;;;-148.52;100.00
3254;BME280;1639;42.804;23.342;2023-02-17T06:05:30;75446.63;;;-148.52;100.00
3254;BME280;1639;42.804;23.342;2023-02-17T06:07:56;75438.34;;;-148.52;100.00
3254;BME280;1639;42.804;23.342;2023-02-17T06:10:21;75423.84;;;-148.52;100.00
3254;BME280;1639;42.804;23.342;2023-02-17T06:12:47;75415.56;;;-148.52;100.00
3254;BME280;1639;42.804;23.342;2023-02-17T06:15:12;75405.22;;;-148.52;100.00
3254;BME280;1639;42.804;23.342;2023-02-17T06:17:38;75388.66;;;-148.52;100.00
3254;BME280;1639;42.804;23.342;2023-02-17T06:20:04;75365.91;;;-148.52;100.00
3254;BME280;1639;42.804;23.342;2023-02-17T06:22:30;75347.28;;;-148.52;100.00
3254;BME280;1639;42.804;23.342;2023-02-17T06:24:55;75334.88;;;-148.52;100.00
3254;BME280;1639;42.804;23.342;2023-02-17T06:27:20;75303.81;;;-148.52;97.37
3254;BME280;1639;42.804;23.342;2023-02-17T06:29:46;75295.53;;;-148.52;92.97
3254;BME280;1639;42.804;23.342;2023-02-17T06:32:11;75276.91;;;-148.52;92.11
3254;BME280;1639;42.804;23.342;2023-02-17T06:34:37;75266.56;;;-148.52;89.90
3254;BME280;1639;42.804;23.342;2023-02-17T06:37:02;75264.50;;;-148.52;87.03
3254;BME280;1639;42.804;23.342;2023-02-17T06:39:27;75254.16;;;-148.52;87.33
3254;BME280;1639;42.804;23.342;2023-02-17T06:41:53;75241.75;;;-148.52;86.23
3254;BME280;1639;42.804;23.342;2023-02-17T06:44:18;75212.78;;;-148.52;85.51
3254;BME280;1639;42.804;23.342;2023-02-17T06:46:44;75204.50;;;-148.52;85.16
3254;BME280;1639;42.804;23.342;2023-02-17T06:49:11;75194.16;;;-148.52;83.36
3254;BME280;1639;42.804;23.342;2023-02-17T06:51:37;75196.22;;;-148.52;83.71
3254;BME280;1639;42.804;23.342;2023-02-17T06:54:02;75194.16;;;-148.52;84.71
3254;BME280;1639;42.804;23.342;2023-02-17T06:56:28;75165.19;;;-148.52;83.48
3254;BME280;1639;42.804;23.342;2023-02-17T06:58:53;75158.97;;;-148.52;82.89
3254;BME280;1639;42.804;23.342;2023-02-17T07:01:24;75146.56;;;-148.52;84.63
3254;BME280;1639;42.804;23.342;2023-02-17T07:03:51;75107.22;;;-148.52;83.61
3254;BME280;1639;42.804;23.342;2023-02-17T07:06:17;75067.91;;;-148.52;82.80
3254;BME280;1639;42.804;23.342;2023-02-17T07:08:42;75047.22;;;-148.52;81.05
3254;BME280;1639;42.804;23.342;2023-02-17T07:11:10;75022.41;;;-148.52;80.04
3254;BME280;1639;42.804;23.342;2023-02-17T07:13:35;74995.50;;;-148.52;79.25
3254;BME280;1639;42.804;23.342;2023-02-17T07:16:02;74958.25;;;-148.52;77.58
3254;BME280;1639;42.804;23.342;2023-02-17T07:18:28;74933.41;;;-148.52;76.18
3254;BME280;1639;42.804;23.342;2023-02-17T07:20:54;74916.88;;;-148.52;76.22
3254;BME280;1639;42.804;23.342;2023-02-17T07:23:19;74889.97;;;-148.52;74.96
3254;BME280;1639;42.804;23.342;2023-02-17T07:25:45;74879.63;;;-148.52;75.17
3254;BME280;1639;42.804;23.342;2023-02-17T07:28:10;74842.38;;;-148.52;73.45
3254;BME280;1639;42.804;23.342;2023-02-17T07:30:37;74811.34;;;-148.52;73.12
3254;BME280;1639;42.804;23.342;2023-02-17T07:33:03;74786.50;;;-148.52;72.36
3254;BME280;1639;42.804;23.342;2023-02-17T07:35:29;74774.09;;;-148.52;70.86
3254;BME280;1639;42.804;23.342;2023-02-17T07:37:57;74747.19;;;-148.52;71.04
3254;BME280;1639;42.804;23.342;2023-02-17T07:40:24;74709.94;;;-148.52;70.13
3254;BME280;1639;42.804;23.342;2023-02-17T07:42:50;74680.97;;;-148.52;69.85
3254;BME280;1639;42.804;23.342;2023-02-17T07:45:15;74660.28;;;-148.52;68.30
3254;BME280;1639;42.804;23.342;2023-02-17T07:47:41;74639.59;;;-148.52;66.96
3254;BME280;1639;42.804;23.342;2023-02-17T07:50:07;74618.91;;;-148.52;66.04
3254;BME280;1639;42.804;23.342;2023-02-17T07:52:32;74604.44;;;-148.52;65.58
3254;BME280;1639;42.804;23.342;2023-02-17T07:54:58;74581.66;;;-148.52;66.24
3254;BME280;1639;42.804;23.342;2023-02-17T07:57:23;74583.75;;;-148.52;66.14
3254;BME280;1639;42.804;23.342;2023-02-17T07:59:49;74560.97;;;-148.52;65.61
3254;BME280;1639;42.804;23.342;2023-02-17T08:02:14;74525.81;;;-148.52;63.56
3254;BME280;1639;42.804;23.342;2023-02-17T08:04:40;74494.78;;;-148.52;62.99
3254;BME280;1639;42.804;23.342;2023-02-17T08:07:05;74465.81;;;-148.52;62.26
3254;BME280;1639;42.804;23.342;2023-02-17T08:09:31;74426.50;;;-148.52;60.89
3254;BME280;1639;42.804;23.342;2023-02-17T08:12:23;74407.88;;;-148.52;60.33
3254;BME280;1639;42.804;23.342;2023-02-17T08:15:08;74358.22;;;-148.52;59.87
3254;BME280;1639;42.804;23.342;2023-02-17T08:17:34;74312.69;;;-148.52;58.15
3254;BME280;1639;42.804;23.342;2023-02-17T08:20:00;74277.53;;;-148.52;56.64
3254;BME280;1639;42.804;23.342;2023-02-17T08:22:25;74242.38;;;-148.52;56.93
3254;BME280;1639;42.804;23.342;2023-02-17T08:24:50;74225.81;;;-148.52;56.23
3254;BME280;1639;42.804;23.342;2023-02-17T08:27:17;74192.72;;;-148.52;56.17
3254;BME280;1639;42.804;23.342;2023-02-17T08:29:42;74186.50;;;-148.52;55.84
3254;BME280;1639;42.804;23.342;2023-02-17T08:32:08;74136.84;;;-148.52;54.65
3254;BME280;1639;42.804;23.342;2023-02-17T08:34:34;74138.91;;;-148.52;54.92
3254;BME280;1639;42.804;23.342;2023-02-17T08:37:00;74124.44;;;-148.52;53.48
3254;BME280;1639;42.804;23.342;2023-02-17T08:39:26;74101.69;;;-148.52;52.94
3254;BME280;1639;42.804;23.342;2023-02-17T08:41:51;74043.75;;;-148.52;52.74
3254;BME280;1639;42.804;23.342;2023-02-17T08:44:18;73983.75;;;-148.52;51.36
3254;BME280;1639;42.804;23.342;2023-02-17T08:46:46;73917.56;;;-148.52;50.17
3254;BME280;1639;42.804;23.342;2023-02-17T08:49:13;73882.41;;;-148.52;48.42
3254;BME280;1639;42.804;23.342;2023-02-17T08:51:39;73849.28;;;-148.52;46.83
3254;BME280;1639;42.804;23.342;2023-02-17T08:54:06;73803.78;;;-148.52;45.44
3254;BME280;1639;42.804;23.342;2023-02-17T08:56:33;73762.41;;;-148.52;44.00
3254;BME280;1639;42.804;23.342;2023-02-17T08:58:59;73731.38;;;-148.52;42.04
3254;BME280;1639;42.804;23.342;2023-02-17T09:01:24;73692.09;;;-148.52;41.38
3254;BME280;1639;42.804;23.342;2023-02-17T09:03:51;73667.25;;;-148.52;40.78
3254;BME280;1639;42.804;23.342;2023-02-17T09:06:18;73661.06;;;-148.52;40.37
3254;BME280;1639;42.804;23.342;2023-02-17T09:08:44;73646.56;;;-148.52;40.13
3254;BME280;1639;42.804;23.342;2023-02-17T09:11:10;73642.44;;;-148.52;39.29
3254;BME280;1639;42.804;23.342;2023-02-17T09:13:36;73656.91;;;-148.52;39.92
3254;BME280;1639;42.804;23.342;2023-02-17T09:16:02;73644.50;;;-148.52;39.06
3254;BME280;1639;42.804;23.342;2023-02-17T09:18:27;73638.31;;;-148.52;38.55
3254;BME280;1639;42.804;23.342;2023-02-17T09:20:53;73636.22;;;-148.52;38.66
3254;BME280;1639;42.804;23.342;2023-02-17T09:23:19;73617.63;;;-148.52;38.69
3254;BME280;1639;42.804;23.342;2023-02-17T09:25:44;73617.63;;;-148.52;37.84
3254;BME280;1639;42.804;23.342;2023-02-17T09:28:10;73609.34;;;-148.52;37.96
3254;BME280;1639;42.804;23.342;2023-02-17T09:30:36;73611.41;;;-148.52;37.75
3254;BME280;1639;42.804;23.342;2023-02-17T09:33:02;73613.47;;;-148.52;37.54
3254;BME280;1639;42.804;23.342;2023-02-17T09:35:29;73611.41;;;-148.52;37.67
3254;BME280;1639;42.804;23.342;2023-02-17T09:37:55;73609.34;;;-148.52;37.56
3254;BME280;1639;42.804;23.342;2023-02-17T09:40:27;73592.78;;;-148.52;37.56
3254;BME280;1639;42.804;23.342;2023-02-17T09:42:55;73580.38;;;-148.52;37.16
3254;BME280;1639;42.804;23.342;2023-02-17T09:45:25;73565.91;;;-148.52;37.16
3254;BME280;1639;42.804;23.342;2023-02-17T09:47:54;73553.50;;;-148.52;36.34
3254;BME280;1639;42.804;23.342;2023-02-17T09:50:36;73547.28;;;-148.52;36.28
3254;BME280;1639;42.804;23.342;2023-02-17T09:53:12;73543.16;;;-148.52;36.21
3254;BME280;1639;42.804;23.342;2023-02-17T09:55:44;73539.00;;;-148.52;36.30
3254;BME280;1639;42.804;23.342;2023-02-17T09:58:24;73510.06;;;-148.52;36.25
3254;BME280;1639;42.804;23.342;2023-02-17T10:00:59;73501.78;;;-148.52;35.59
3254;BME280;1639;42.804;23.342;2023-02-17T10:03:34;73493.50;;;-148.52;35.04
3254;BME280;1639;42.804;23.342;2023-02-17T10:13:39;73466.63;;;-148.52;34.02
3254;BME280;1639;42.804;23.342;2023-02-17T10:16:09;73464.53;;;-148.52;33.02
3254;BME280;1639;42.804;23.342;2023-02-17T10:18:40;73456.28;;;-148.52;33.53
3254;BME280;1639;42.804;23.342;2023-02-17T10:21:16;73460.41;;;-148.52;33.12
3254;BME280;1639;42.804;23.342;2023-02-17T10:23:46;73460.41;;;-148.52;32.42
3254;BME280;1639;42.804;23.342;2023-02-17T10:29:33;73456.28;;;-148.52;32.37
3254;BME280;1639;42.804;23.342;2023-02-17T10:34:52;73435.59;;;-148.52;32.01
3254;BME280;1639;42.804;23.342;2023-02-17T10:37:42;73429.38;;;-148.52;32.41
3254;BME280;1639;42.804;23.342;2023-02-17T10:40:21;73443.84;;;-148.52;32.10
3254;BME280;1639;42.804;23.342;2023-02-17T10:42:54;73435.59;;;-148.52;31.78
3254;BME280;1639;42.804;23.342;2023-02-17T10:45:34;73429.38;;;-148.52;31.95
3254;BME280;1639;42.804;23.342;2023-02-17T10:50:29;73423.19;;;-148.52;31.68
3254;BME280;1639;42.804;23.342;2023-02-17T10:52:55;73400.41;;;-148.52;32.08
3254;BME280;1639;42.804;23.342;2023-02-17T10:55:40;73383.88;;;-148.52;31.97
3254;BME280;1639;42.804;23.342;2023-02-17T10:58:25;73396.28;;;-148.52;31.09
3254;BME280;1639;42.804;23.342;2023-02-17T11:00:54;73396.28;;;-148.52;31.52
3254;BME280;1639;42.804;23.342;2023-02-17T11:03:26;73400.41;;;-148.52;31.20
3254;BME280;1639;42.804;23.342;2023-02-17T11:06:00;73385.94;;;-148.52;30.96
3254;BME280;1639;42.804;23.342;2023-02-17T11:08:33;73379.75;;;-148.52;31.44
3254;BME280;1639;42.804;23.342;2023-02-17T11:11:05;73377.66;;;-148.52;30.68
3254;BME280;1639;42.804;23.342;2023-02-17T11:13:37;73377.66;;;-148.52;30.85
3254;BME280;1639;42.804;23.342;2023-02-17T11:16:05;73361.13;;;-148.52;31.07
3254;BME280;1639;42.804;23.342;2023-02-17T11:18:35;73381.81;;;-148.52;30.21
3254;BME280;1639;42.804;23.342;2023-02-17T11:21:08;73377.66;;;-148.52;31.00
3254;BME280;1639;42.804;23.342;2023-02-17T11:23:46;73373.53;;;-148.52;30.36
3254;BME280;1639;42.804;23.342;2023-02-17T11:26:19;73365.25;;;-148.52;30.81
3254;BME280;1639;42.804;23.342;2023-02-17T11:28:46;73365.25;;;-148.52;30.32
3254;BME280;1639;42.804;23.342;2023-02-17T11:31:28;73365.25;;;-148.52;30.17
3254;BME280;1639;42.804;23.342;2023-02-17T11:33:54;73361.13;;;-148.52;29.67
3254;BME280;1639;42.804;23.342;2023-02-17T11:36:25;73350.78;;;-148.52;29.69
3254;BME280;1639;42.804;23.342;2023-02-17T11:38:50;73344.56;;;-148.52;30.43
3254;BME280;1639;42.804;23.342;2023-02-17T11:41:16;73348.72;;;-148.52;30.25
3254;BME280;1639;42.804;23.342;2023-02-17T11:44:11;73342.50;;;-148.52;29.73
3254;BME280;1639;42.804;23.342;2023-02-17T11:49:36;73357.00;;;-148.52;29.13
3254;BME280;1639;42.804;23.342;2023-02-17T12:12:57;73354.91;;;-148.52;29.28
3254;BME280;1639;42.804;23.342;2023-02-17T12:15:53;73340.44;;;-148.52;28.94
3254;BME280;1639;42.804;23.342;2023-02-17T12:29:27;73336.31;;;-148.52;29.04
3254;BME280;1639;42.804;23.342;2023-02-17T12:34:47;73319.75;;;-148.52;29.03
3254;BME280;1639;42.804;23.342;2023-02-17T12:37:20;73332.16;;;-148.52;29.29
3254;BME280;1639;42.804;23.342;2023-02-17T12:39:52;73328.03;;;-148.52;28.98
3254;BME280;1639;42.804;23.342;2023-02-17T12:42:54;73323.91;;;-148.52;29.46
3254;BME280;1639;42.804;23.342;2023-02-17T12:48:00;73330.09;;;-148.52;28.72
3254;BME280;1639;42.804;23.342;2023-02-17T12:51:09;73330.09;;;-148.52;29.06
3254;BME280;1639;42.804;23.342;2023-02-17T12:53:44;73328.03;;;-148.52;29.55
3254;BME280;1639;42.804;23.342;2023-02-17T12:59:18;73323.91;;;-148.52;29.60
3254;BME280;1639;42.804;23.342;2023-02-17T13:01:50;73328.03;;;-148.52;30.00
3254;BME280;1639;42.804;23.342;2023-02-17T13:04:18;73338.38;;;-148.52;30.16
3254;BME280;1639;42.804;23.342;2023-02-17T13:06:49;73330.09;;;-148.52;29.93
3254;BME280;1639;42.804;23.342;2023-02-17T13:09:40;73321.81;;;-148.52;30.11
3254;BME280;1639;42.804;23.342;2023-02-17T13:12:15;73319.75;;;-148.52;30.14
3254;BME280;1639;42.804;23.342;2023-02-17T13:14:43;73315.63;;;-148.52;29.47
3254;BME280;1639;42.804;23.342;2023-02-17T13:17:33;73307.34;;;-148.52;30.10
3254;BME280;1639;42.804;23.342;2023-02-17T13:20:05;73294.94;;;-148.52;30.34
3254;BME280;1639;42.804;23.342;2023-02-17T13:22:31;73288.72;;;-148.52;30.29
3254;BME280;1639;42.804;23.342;2023-02-17T13:24:56;73294.94;;;-148.52;30.18
3254;BME280;1639;42.804;23.342;2023-02-17T13:32:33;73299.06;;;-148.52;29.47
3254;BME280;1639;42.804;23.342;2023-02-17T13:37:51;73294.94;;;-148.52;30.04
3254;BME280;1639;42.804;23.342;2023-02-17T13:42:47;73309.41;;;-148.52;30.05
3254;BME280;1639;42.804;23.342;2023-02-17T13:45:23;73319.75;;;-148.52;30.20
3254;BME280;1639;42.804;23.342;2023-02-17T13:47:51;73319.75;;;-148.52;30.08
3254;BME280;1639;42.804;23.342;2023-02-17T13:50:34;73319.75;;;-148.52;30.41
3254;BME280;1639;42.804;23.342;2023-02-17T13:53:02;73317.69;;;-148.52;30.29
3254;BME280;1639;42.804;23.342;2023-02-17T13:55:28;73307.34;;;-148.52;30.47
3254;BME280;1639;42.804;23.342;2023-02-17T13:57:57;73311.47;;;-148.52;29.88
3254;BME280;1639;42.804;23.342;2023-02-17T14:00:28;73321.81;;;-148.52;30.28
3254;BME280;1639;42.804;23.342;2023-02-17T14:02:56;73319.75;;;-148.52;30.10
3254;BME280;1639;42.804;23.342;2023-02-17T14:08:01;73330.09;;;-148.52;29.97
3254;BME280;1639;42.804;23.342;2023-02-17T14:10:28;73338.38;;;-148.52;29.92
3254;BME280;1639;42.804;23.342;2023-02-17T14:12:54;73340.44;;;-148.52;30.50
3254;BME280;1639;42.804;23.342;2023-02-17T14:15:23;73340.44;;;-148.52;30.68
3254;BME280;1639;42.804;23.342;2023-02-17T14:17:49;73340.44;;;-148.52;31.00
3254;BME280;1639;42.804;23.342;2023-02-17T14:20:33;73340.44;;;-148.52;31.24
3254;BME280;1639;42.804;23.342;2023-02-17T14:23:07;73342.50;;;-148.52;30.53
3254;BME280;1639;42.804;23.342;2023-02-17T14:25:37;73340.44;;;-148.52;30.27
3254;BME280;1639;42.804;23.342;2023-02-17T14:28:04;73340.44;;;-148.52;30.32
3254;BME280;1639;42.804;23.342;2023-02-17T14:30:41;73352.84;;;-148.52;30.41
3254;BME280;1639;42.804;23.342;2023-02-17T14:35:54;73361.13;;;-148.52;30.20